sensor_id;sensor_type;location;lat;lon;timestamp;noise_LAeq;noise_LA_min;noise_LA_max;noise_LA01;noise_LA95
79288;Laerm;68737;53.946;27.634;2023-09-19T00:00:19;43.350883;37.626747;54.853622;;
79288;Laerm;68737;53.946;27.634;2023-09-19T00:05:19;40.183258;37.380074;51.279221;;
79288;Laerm;68737;53.946;27.634;2023-09-19T00:07:49;42.612541;38.665268;54.425056;;
79288;Laerm;68737;53.946;27.634;2023-09-19T00:10:19;45.064224;38.052841;57.542801;;
79288;Laerm;68737;53.946;27.634;2023-09-19T00:12:49;41.360451;37.423454;47.360764;;
79288;Laerm;68737;53.946;27.634;2023-09-19T00:15:19;42.344315;37.621475;55.655106;;
79288;Laerm;68737;53.946;27.634;2023-09-19T00:17:49;40.995605;37.815086;46.891769;;
79288;Laerm;68737;53.946;27.634;2023-09-19T00:20:19;40.722656;37.626564;49.268730;;
79288;Laerm;68737;53.946;27.634;2023-09-19T00:22:49;41.948898;37.705925;53.124352;;
79288;Laerm;68737;53.946;27.634;2023-09-19T00:25:19;40.122047;37.874748;48.665291;;
79288;Laerm;68737;53.946;27.634;2023-09-19T00:27:49;40.648979;37.909073;48.523933;;
79288;Laerm;68737;53.946;27.634;2023-09-19T00:30:19;43.710846;38.359650;57.620888;;
79288;Laerm;68737;53.946;27.634;2023-09-19T00:32:49;40.627701;38.050743;47.351364;;
79288;Laerm;68737;53.946;27.634;2023-09-19T00:35:19;42.297188;38.492302;58.055962;;
79288;Laerm;68737;53.946;27.634;2023-09-19T00:37:49;42.929611;38.494141;58.933289;;
79288;Laerm;68737;53.946;27.634;2023-09-19T00:40:19;40.903763;38.412285;46.661842;;
79288;Laerm;68737;53.946;27.634;2023-09-19T00:42:49;41.465927;38.469116;47.384071;;
79288;Laerm;68737;53.946;27.634;2023-09-19T00:45:19;41.890526;38.355339;50.881439;;
79288;Laerm;68737;53.946;27.634;2023-09-19T00:47:49;41.488174;38.502388;47.407936;;
79288;Laerm;68737;53.946;27.634;2023-09-19T00:50:20;41.694138;38.800995;47.768272;;
79288;Laerm;68737;53.946;27.634;2023-09-19T00:52:49;41.793129;38.687874;46.831680;;
79288;Laerm;68737;53.946;27.634;2023-09-19T00:55:19;42.394012;38.907303;50.838806;;
79288;Laerm;68737;53.946;27.634;2023-09-19T00:57:49;42.535088;38.307220;51.863708;;
79288;Laerm;68737;53.946;27.634;2023-09-19T01:00:19;40.634201;38.169731;43.915863;;
79288;Laerm;68737;53.946;27.634;2023-09-19T01:02:49;41.105515;38.598793;48.422661;;
79288;Laerm;68737;53.946;27.634;2023-09-19T01:05:19;45.182686;39.269653;58.583694;;
79288;Laerm;68737;53.946;27.634;2023-09-19T01:07:49;45.681992;39.160606;55.922226;;
79288;Laerm;68737;53.946;27.634;2023-09-19T01:10:19;41.449081;38.915962;44.852859;;
79288;Laerm;68737;53.946;27.634;2023-09-19T01:17:52;41.557243;38.865387;45.123184;;
79288;Laerm;68737;53.946;27.634;2023-09-19T01:30:20;42.259560;38.680901;45.117157;;
79288;Laerm;68737;53.946;27.634;2023-09-19T01:35:19;42.298660;38.069366;54.634529;;
79288;Laerm;68737;53.946;27.634;2023-09-19T01:37:48;43.578575;38.909157;54.550011;;
79288;Laerm;68737;53.946;27.634;2023-09-19T01:40:19;41.831657;38.193886;49.650146;;
79288;Laerm;68737;53.946;27.634;2023-09-19T01:42:49;47.003235;38.537933;59.044033;;
79288;Laerm;68737;53.946;27.634;2023-09-19T01:52:49;45.445755;38.909500;62.196159;;
79288;Laerm;68737;53.946;27.634;2023-09-19T01:55:19;46.913330;39.011314;63.659992;;
79288;Laerm;68737;53.946;27.634;2023-09-19T01:57:51;46.341469;38.875610;62.782101;;
79288;Laerm;68737;53.946;27.634;2023-09-19T02:00:18;43.010742;39.313072;53.875633;;
79288;Laerm;68737;53.946;27.634;2023-09-19T02:02:48;43.738762;39.628845;50.775406;;
79288;Laerm;68737;53.946;27.634;2023-09-19T02:07:48;45.945938;40.884331;56.200027;;
79288;Laerm;68737;53.946;27.634;2023-09-19T02:10:18;48.303047;42.721550;63.559937;;
79288;Laerm;68737;53.946;27.634;2023-09-19T02:12:49;46.427498;40.716461;61.687218;;
79288;Laerm;68737;53.946;27.634;2023-09-19T02:15:18;45.787979;40.735435;56.370720;;
79288;Laerm;68737;53.946;27.634;2023-09-19T02:17:48;49.648712;39.768044;62.719818;;
79288;Laerm;68737;53.946;27.634;2023-09-19T02:20:18;43.972084;39.692535;50.744370;;
79288;Laerm;68737;53.946;27.634;2023-09-19T02:22:48;57.810043;42.107765;67.520172;;
79288;Laerm;68737;53.946;27.634;2023-09-19T02:25:18;45.189423;42.349136;53.512596;;
79288;Laerm;68737;53.946;27.634;2023-09-19T02:27:48;43.612183;40.729362;49.033035;;
79288;Laerm;68737;53.946;27.634;2023-09-19T02:30:18;47.663681;41.123390;57.712006;;
79288;Laerm;68737;53.946;27.634;2023-09-19T02:32:48;44.659264;40.437607;54.494461;;
79288;Laerm;68737;53.946;27.634;2023-09-19T02:35:18;48.172432;40.971191;61.326084;;
79288;Laerm;68737;53.946;27.634;2023-09-19T02:37:48;47.551773;41.499092;60.096077;;
79288;Laerm;68737;53.946;27.634;2023-09-19T02:40:18;48.272934;40.208954;60.879124;;
79288;Laerm;68737;53.946;27.634;2023-09-19T02:42:49;44.659195;39.635437;52.535095;;
79288;Laerm;68737;53.946;27.634;2023-09-19T02:45:19;45.254387;41.416832;54.355644;;
79288;Laerm;68737;53.946;27.634;2023-09-19T02:47:48;50.353683;40.704033;69.342056;;
79288;Laerm;68737;53.946;27.634;2023-09-19T02:50:18;44.895325;40.719299;52.640160;;
79288;Laerm;68737;53.946;27.634;2023-09-19T02:52:48;48.080017;41.807579;62.106834;;
79288;Laerm;68737;53.946;27.634;2023-09-19T02:55:19;49.168274;43.460602;58.544395;;
79288;Laerm;68737;53.946;27.634;2023-09-19T03:00:19;48.340973;40.483727;66.035095;;
79288;Laerm;68737;53.946;27.634;2023-09-19T03:02:49;47.270088;41.356895;56.861877;;
79288;Laerm;68737;53.946;27.634;2023-09-19T03:05:19;51.461594;41.325592;66.704498;;
79288;Laerm;68737;53.946;27.634;2023-09-19T03:07:49;45.486252;41.203636;54.616776;;
79288;Laerm;68737;53.946;27.634;2023-09-19T03:10:19;47.986839;42.688072;60.155960;;
79288;Laerm;68737;53.946;27.634;2023-09-19T03:12:49;52.891891;42.889534;67.008293;;
79288;Laerm;68737;53.946;27.634;2023-09-19T03:15:18;53.235176;42.847466;67.484009;;
79288;Laerm;68737;53.946;27.634;2023-09-19T03:17:49;50.740410;42.914688;64.099831;;
79288;Laerm;68737;53.946;27.634;2023-09-19T03:20:19;47.403931;42.625824;58.937164;;
79288;Laerm;68737;53.946;27.634;2023-09-19T03:22:48;49.014084;43.340111;59.653294;;
79288;Laerm;68737;53.946;27.634;2023-09-19T03:25:18;48.452774;43.122261;60.048622;;
79288;Laerm;68737;53.946;27.634;2023-09-19T03:27:48;49.536377;42.890327;68.909958;;
79288;Laerm;68737;53.946;27.634;2023-09-19T03:30:18;50.288086;43.333061;58.112823;;
79288;Laerm;68737;53.946;27.634;2023-09-19T03:32:48;50.536903;43.942505;61.325069;;
79288;Laerm;68737;53.946;27.634;2023-09-19T03:35:18;51.828545;43.909393;64.680344;;
79288;Laerm;68737;53.946;27.634;2023-09-19T03:37:48;49.933281;42.981491;60.592182;;
79288;Laerm;68737;53.946;27.634;2023-09-19T03:40:18;50.862038;43.658684;60.425968;;
79288;Laerm;68737;53.946;27.634;2023-09-19T03:42:48;51.962173;43.891724;68.651779;;
79288;Laerm;68737;53.946;27.634;2023-09-19T03:45:18;49.465385;43.856819;68.045853;;
79288;Laerm;68737;53.946;27.634;2023-09-19T03:47:48;53.483276;45.626198;65.286041;;
79288;Laerm;68737;53.946;27.634;2023-09-19T03:50:18;52.101669;46.222771;62.498745;;
79288;Laerm;68737;53.946;27.634;2023-09-19T03:52:48;52.195145;46.372223;62.711361;;
79288;Laerm;68737;53.946;27.634;2023-09-19T03:55:18;54.179611;45.818672;64.990440;;
79288;Laerm;68737;53.946;27.634;2023-09-19T03:57:48;52.200996;45.483238;60.201866;;
79288;Laerm;68737;53.946;27.634;2023-09-19T04:00:18;51.651833;45.850189;61.009792;;
79288;Laerm;68737;53.946;27.634;2023-09-19T04:02:48;55.117584;46.397026;65.666275;;
79288;Laerm;68737;53.946;27.634;2023-09-19T04:05:19;53.507195;47.199554;60.237759;;
79288;Laerm;68737;53.946;27.634;2023-09-19T04:07:48;53.328003;45.687393;63.755451;;
79288;Laerm;68737;53.946;27.634;2023-09-19T04:10:18;53.701874;46.629196;61.162003;;
79288;Laerm;68737;53.946;27.634;2023-09-19T04:15:19;56.570732;48.212639;68.897858;;
79288;Laerm;68737;53.946;27.634;2023-09-19T04:17:49;53.997772;48.791283;60.265423;;
79288;Laerm;68737;53.946;27.634;2023-09-19T04:20:18;56.393051;49.307632;66.988373;;
79288;Laerm;68737;53.946;27.634;2023-09-19T04:22:48;55.538147;47.650925;71.204041;;
79288;Laerm;68737;53.946;27.634;2023-09-19T04:25:18;55.424538;48.499901;62.565849;;
79288;Laerm;68737;53.946;27.634;2023-09-19T04:27:48;55.082977;48.864166;62.593933;;
79288;Laerm;68737;53.946;27.634;2023-09-19T04:30:18;55.016739;48.203018;68.082375;;
79288;Laerm;68737;53.946;27.634;2023-09-19T04:32:48;56.454689;49.992020;66.939232;;
79288;Laerm;68737;53.946;27.634;2023-09-19T04:35:18;56.203400;50.820618;65.908920;;
79288;Laerm;68737;53.946;27.634;2023-09-19T04:37:49;56.041870;49.736137;70.520233;;
79288;Laerm;68737;53.946;27.634;2023-09-19T04:40:18;55.606995;49.649467;60.928005;;
79288;Laerm;68737;53.946;27.634;2023-09-19T04:45:18;57.211555;49.991608;68.193283;;
79288;Laerm;68737;53.946;27.634;2023-09-19T04:47:48;56.885086;51.760429;65.119415;;
79288;Laerm;68737;53.946;27.634;2023-09-19T04:50:18;56.638626;51.260170;66.511269;;
79288;Laerm;68737;53.946;27.634;2023-09-19T04:55:18;57.142998;51.249405;73.902878;;
79288;Laerm;68737;53.946;27.634;2023-09-19T04:57:49;56.042419;49.346878;63.100674;;
79288;Laerm;68737;53.946;27.634;2023-09-19T05:05:19;56.393661;51.469131;63.243473;;
79288;Laerm;68737;53.946;27.634;2023-09-19T05:07:48;57.674858;52.963310;65.096359;;
79288;Laerm;68737;53.946;27.634;2023-09-19T05:10:18;57.611389;52.074623;77.824768;;
79288;Laerm;68737;53.946;27.634;2023-09-19T05:12:48;56.514511;51.208443;63.615170;;
79288;Laerm;68737;53.946;27.634;2023-09-19T05:15:18;55.810005;50.359192;61.385250;;
79288;Laerm;68737;53.946;27.634;2023-09-19T05:17:49;57.078278;52.444275;63.139427;;
79288;Laerm;68737;53.946;27.634;2023-09-19T05:20:18;57.116875;51.753700;66.857773;;
79288;Laerm;68737;53.946;27.634;2023-09-19T05:22:48;58.140511;51.388710;68.817764;;
79288;Laerm;68737;53.946;27.634;2023-09-19T05:25:18;57.712448;52.660355;70.867981;;
79288;Laerm;68737;53.946;27.634;2023-09-19T05:27:48;56.132576;50.346054;64.129623;;
79288;Laerm;68737;53.946;27.634;2023-09-19T05:30:18;56.273239;49.463928;62.157925;;
79288;Laerm;68737;53.946;27.634;2023-09-19T05:32:48;56.553085;52.016525;65.278214;;
79288;Laerm;68737;53.946;27.634;2023-09-19T05:35:18;56.987885;52.066628;64.707764;;
79288;Laerm;68737;53.946;27.634;2023-09-19T05:40:18;57.999580;50.385063;71.966446;;
79288;Laerm;68737;53.946;27.634;2023-09-19T05:42:48;56.826073;50.185249;65.623596;;
79288;Laerm;68737;53.946;27.634;2023-09-19T05:45:18;57.153366;49.612297;64.461884;;
79288;Laerm;68737;53.946;27.634;2023-09-19T05:47:49;57.637024;48.864037;70.266052;;
79288;Laerm;68737;53.946;27.634;2023-09-19T05:50:18;55.577034;49.115234;61.654480;;
79288;Laerm;68737;53.946;27.634;2023-09-19T05:55:18;55.784859;50.039337;63.024628;;
79288;Laerm;68737;53.946;27.634;2023-09-19T05:57:49;56.545326;50.205109;62.473526;;
79288;Laerm;68737;53.946;27.634;2023-09-19T06:02:49;57.039711;50.372963;74.238297;;
79288;Laerm;68737;53.946;27.634;2023-09-19T06:05:18;58.050514;51.455399;69.649635;;
79288;Laerm;68737;53.946;27.634;2023-09-19T06:07:48;55.878441;49.649406;61.444046;;
79288;Laerm;68737;53.946;27.634;2023-09-19T06:10:18;58.898590;49.492493;70.174782;;
79288;Laerm;68737;53.946;27.634;2023-09-19T06:12:48;60.180515;50.550903;76.317238;;
79288;Laerm;68737;53.946;27.634;2023-09-19T06:15:18;56.586922;48.282921;67.199188;;
79288;Laerm;68737;53.946;27.634;2023-09-19T06:17:49;55.928703;48.489395;64.083115;;
79288;Laerm;68737;53.946;27.634;2023-09-19T06:20:18;54.379372;48.734726;61.828793;;
79288;Laerm;68737;53.946;27.634;2023-09-19T06:22:48;57.341377;49.055573;68.974762;;
79288;Laerm;68737;53.946;27.634;2023-09-19T06:25:18;55.433823;49.345329;66.464111;;
79288;Laerm;68737;53.946;27.634;2023-09-19T06:27:49;55.981506;49.049759;66.055054;;
79288;Laerm;68737;53.946;27.634;2023-09-19T06:30:18;57.029663;48.873856;69.308411;;
79288;Laerm;68737;53.946;27.634;2023-09-19T06:32:48;55.772919;49.814331;63.720131;;
79288;Laerm;68737;53.946;27.634;2023-09-19T06:35:18;55.581413;48.575867;65.337402;;
79288;Laerm;68737;53.946;27.634;2023-09-19T06:37:48;56.024513;47.823135;67.555855;;
79288;Laerm;68737;53.946;27.634;2023-09-19T06:40:18;56.126663;47.454430;62.603512;;
79288;Laerm;68737;53.946;27.634;2023-09-19T06:45:18;56.659859;51.416832;64.944572;;
79288;Laerm;68737;53.946;27.634;2023-09-19T06:47:49;58.968475;49.084946;72.725014;;
79288;Laerm;68737;53.946;27.634;2023-09-19T06:50:18;57.369736;50.333832;65.528931;;
79288;Laerm;68737;53.946;27.634;2023-09-19T06:55:18;54.874954;48.719666;61.401943;;
79288;Laerm;68737;53.946;27.634;2023-09-19T06:57:48;55.468132;49.324478;61.731327;;
79288;Laerm;68737;53.946;27.634;2023-09-19T07:00:18;55.303139;49.159973;61.910458;;
79288;Laerm;68737;53.946;27.634;2023-09-19T07:03:09;55.989838;49.765091;63.484520;;
79288;Laerm;68737;53.946;27.634;2023-09-19T07:05:18;55.667526;48.717041;63.456669;;
79288;Laerm;68737;53.946;27.634;2023-09-19T07:07:48;54.429451;48.939064;71.450920;;
79288;Laerm;68737;53.946;27.634;2023-09-19T07:10:18;56.738380;50.441063;63.468063;;
79288;Laerm;68737;53.946;27.634;2023-09-19T07:12:52;55.472748;49.662216;68.057335;;
79288;Laerm;68737;53.946;27.634;2023-09-19T07:15:18;54.460480;49.692810;61.470715;;
79288;Laerm;68737;53.946;27.634;2023-09-19T07:17:48;55.683762;48.689941;75.136459;;
79288;Laerm;68737;53.946;27.634;2023-09-19T07:20:18;55.542328;50.236572;63.012001;;
79288;Laerm;68737;53.946;27.634;2023-09-19T07:22:48;57.138069;50.130447;66.664490;;
79288;Laerm;68737;53.946;27.634;2023-09-19T07:25:18;56.218048;48.955704;63.533958;;
79288;Laerm;68737;53.946;27.634;2023-09-19T07:27:48;57.112602;50.240860;65.474991;;
79288;Laerm;68737;53.946;27.634;2023-09-19T07:30:18;56.238808;49.845558;63.329269;;
79288;Laerm;68737;53.946;27.634;2023-09-19T07:32:48;56.112457;48.610397;66.928299;;
79288;Laerm;68737;53.946;27.634;2023-09-19T07:35:18;54.356308;49.043007;68.412857;;
79288;Laerm;68737;53.946;27.634;2023-09-19T07:37:49;55.390160;49.761765;65.563736;;
79288;Laerm;68737;53.946;27.634;2023-09-19T07:40:18;60.517063;49.619217;77.041397;;
79288;Laerm;68737;53.946;27.634;2023-09-19T07:42:48;55.722061;48.973381;62.219421;;
79288;Laerm;68737;53.946;27.634;2023-09-19T07:45:18;55.227432;48.302612;61.590660;;
79288;Laerm;68737;53.946;27.634;2023-09-19T07:47:52;54.237587;48.426178;61.708252;;
79288;Laerm;68737;53.946;27.634;2023-09-19T07:50:19;55.171288;48.526443;66.435776;;
79288;Laerm;68737;53.946;27.634;2023-09-19T07:52:49;54.616928;50.097023;60.498894;;
79288;Laerm;68737;53.946;27.634;2023-09-19T07:55:18;57.869942;50.251915;70.405319;;
79288;Laerm;68737;53.946;27.634;2023-09-19T07:57:48;55.416801;48.851891;64.247620;;
79288;Laerm;68737;53.946;27.634;2023-09-19T08:00:18;56.322311;50.200226;65.017380;;
79288;Laerm;68737;53.946;27.634;2023-09-19T08:02:48;57.068687;49.876312;66.901138;;
79288;Laerm;68737;53.946;27.634;2023-09-19T08:05:18;54.521553;48.791260;60.729965;;
79288;Laerm;68737;53.946;27.634;2023-09-19T08:07:48;55.032990;49.179436;64.585968;;
79288;Laerm;68737;53.946;27.634;2023-09-19T08:10:18;55.876472;48.656975;71.627548;;
79288;Laerm;68737;53.946;27.634;2023-09-19T08:12:48;55.869049;50.266159;63.095436;;
79288;Laerm;68737;53.946;27.634;2023-09-19T08:15:19;56.984184;50.971931;67.433464;;
79288;Laerm;68737;53.946;27.634;2023-09-19T08:17:48;55.559769;50.120224;63.684654;;
79288;Laerm;68737;53.946;27.634;2023-09-19T08:20:18;57.834801;50.879257;64.719330;;
79288;Laerm;68737;53.946;27.634;2023-09-19T08:22:49;56.038483;49.951424;66.374626;;
79288;Laerm;68737;53.946;27.634;2023-09-19T08:25:18;56.455788;50.144424;66.804588;;
79288;Laerm;68737;53.946;27.634;2023-09-19T08:27:48;56.939857;49.426773;72.984192;;
79288;Laerm;68737;53.946;27.634;2023-09-19T08:30:19;60.022415;48.561562;76.191498;;
79288;Laerm;68737;53.946;27.634;2023-09-19T08:32:48;56.483994;48.366814;62.000957;;
79288;Laerm;68737;53.946;27.634;2023-09-19T08:35:18;58.573380;50.302109;71.739334;;
79288;Laerm;68737;53.946;27.634;2023-09-19T08:37:48;56.480125;49.971428;64.916183;;
79288;Laerm;68737;53.946;27.634;2023-09-19T08:40:18;60.462566;49.922173;74.420761;;
79288;Laerm;68737;53.946;27.634;2023-09-19T08:45:18;57.180763;52.392281;61.957272;;
79288;Laerm;68737;53.946;27.634;2023-09-19T08:52:48;56.196930;48.873123;66.816803;;
79288;Laerm;68737;53.946;27.634;2023-09-19T08:55:18;57.754547;52.469299;63.173813;;
79288;Laerm;68737;53.946;27.634;2023-09-19T09:00:18;59.054470;49.476585;73.331856;;
79288;Laerm;68737;53.946;27.634;2023-09-19T09:02:48;58.284050;50.372513;76.933884;;
79288;Laerm;68737;53.946;27.634;2023-09-19T09:05:18;57.376465;51.743164;68.231995;;
79288;Laerm;68737;53.946;27.634;2023-09-19T09:07:48;58.389503;50.523895;70.428024;;
79288;Laerm;68737;53.946;27.634;2023-09-19T09:10:18;56.265587;49.763092;62.728123;;
79288;Laerm;68737;53.946;27.634;2023-09-19T09:12:49;55.000885;47.596413;65.110016;;
79288;Laerm;68737;53.946;27.634;2023-09-19T09:20:18;56.861252;48.710609;66.241409;;
79288;Laerm;68737;53.946;27.634;2023-09-19T09:25:18;56.608734;51.045036;64.320923;;
79288;Laerm;68737;53.946;27.634;2023-09-19T09:27:58;55.069916;48.070633;69.242996;;
79288;Laerm;68737;53.946;27.634;2023-09-19T09:32:48;54.815910;48.295380;62.024345;;
79288;Laerm;68737;53.946;27.634;2023-09-19T09:35:18;56.886154;50.811401;65.758514;;
79288;Laerm;68737;53.946;27.634;2023-09-19T09:37:48;57.074516;49.824394;69.006683;;
79288;Laerm;68737;53.946;27.634;2023-09-19T09:40:18;60.644882;50.015770;78.727524;;
79288;Laerm;68737;53.946;27.634;2023-09-19T09:42:48;54.758148;47.910667;64.170090;;
79288;Laerm;68737;53.946;27.634;2023-09-19T09:47:48;54.728653;48.719925;61.716843;;
79288;Laerm;68737;53.946;27.634;2023-09-19T09:52:48;55.694069;48.784950;64.984146;;
79288;Laerm;68737;53.946;27.634;2023-09-19T09:55:18;55.994080;49.386147;61.809151;;
79288;Laerm;68737;53.946;27.634;2023-09-19T09:57:51;56.286331;49.860046;68.055901;;
79288;Laerm;68737;53.946;27.634;2023-09-19T10:00:18;56.256248;49.209869;64.278793;;
79288;Laerm;68737;53.946;27.634;2023-09-19T10:02:48;56.745926;51.296356;62.372276;;
79288;Laerm;68737;53.946;27.634;2023-09-19T10:05:19;58.084755;51.148270;68.115082;;
79288;Laerm;68737;53.946;27.634;2023-09-19T10:07:48;58.007957;52.093163;68.582581;;
79288;Laerm;68737;53.946;27.634;2023-09-19T10:12:48;58.627419;49.652428;69.318275;;
79288;Laerm;68737;53.946;27.634;2023-09-19T10:15:18;56.154121;49.349083;63.123493;;
79288;Laerm;68737;53.946;27.634;2023-09-19T10:17:48;55.229492;49.116333;63.795414;;
79288;Laerm;68737;53.946;27.634;2023-09-19T10:20:18;56.099014;49.906998;64.083725;;
79288;Laerm;68737;53.946;27.634;2023-09-19T10:22:48;56.223053;49.882690;62.442673;;
79288;Laerm;68737;53.946;27.634;2023-09-19T10:25:18;58.052956;51.375694;69.247635;;
79288;Laerm;68737;53.946;27.634;2023-09-19T10:27:48;55.434937;50.518944;67.988861;;
79288;Laerm;68737;53.946;27.634;2023-09-19T10:30:18;55.597221;49.163078;62.923958;;
79288;Laerm;68737;53.946;27.634;2023-09-19T10:32:48;56.260765;50.133186;70.992729;;
79288;Laerm;68737;53.946;27.634;2023-09-19T10:35:18;57.311096;50.052284;70.786385;;
79288;Laerm;68737;53.946;27.634;2023-09-19T10:37:48;59.563660;52.363045;69.079941;;
79288;Laerm;68737;53.946;27.634;2023-09-19T10:40:18;58.707703;49.915497;78.335609;;
79288;Laerm;68737;53.946;27.634;2023-09-19T10:42:48;56.408890;50.788788;62.681774;;
79288;Laerm;68737;53.946;27.634;2023-09-19T10:45:19;56.174622;48.684326;64.774002;;
79288;Laerm;68737;53.946;27.634;2023-09-19T10:47:48;55.687553;48.788780;65.557465;;
79288;Laerm;68737;53.946;27.634;2023-09-19T10:52:48;55.970406;48.802513;63.155182;;
79288;Laerm;68737;53.946;27.634;2023-09-19T10:55:18;56.149208;50.387543;71.387291;;
79288;Laerm;68737;53.946;27.634;2023-09-19T10:57:48;57.810776;51.528961;66.511459;;
79288;Laerm;68737;53.946;27.634;2023-09-19T11:00:18;57.943085;51.909729;74.135620;;
79288;Laerm;68737;53.946;27.634;2023-09-19T11:05:18;58.808891;53.547241;68.696518;;
79288;Laerm;68737;53.946;27.634;2023-09-19T11:12:48;56.371223;50.737343;68.374756;;
79288;Laerm;68737;53.946;27.634;2023-09-19T11:17:48;58.318001;50.823799;67.552200;;
79288;Laerm;68737;53.946;27.634;2023-09-19T11:35:18;56.572990;50.804573;62.145172;;
79288;Laerm;68737;53.946;27.634;2023-09-19T11:40:18;54.091507;47.685249;63.194164;;
79288;Laerm;68737;53.946;27.634;2023-09-19T11:42:48;55.735466;48.793007;66.016815;;
79288;Laerm;68737;53.946;27.634;2023-09-19T11:47:48;57.576462;48.445450;68.086502;;
79288;Laerm;68737;53.946;27.634;2023-09-19T11:50:18;57.626801;50.423569;68.678986;;
79288;Laerm;68737;53.946;27.634;2023-09-19T11:52:48;57.201416;51.382256;66.483490;;
79288;Laerm;68737;53.946;27.634;2023-09-19T11:55:18;62.114510;54.607315;72.030792;;
79288;Laerm;68737;53.946;27.634;2023-09-19T11:57:48;59.599644;51.283104;71.371933;;
79288;Laerm;68737;53.946;27.634;2023-09-19T12:00:18;57.316956;51.941116;67.937637;;
79288;Laerm;68737;53.946;27.634;2023-09-19T12:02:48;56.759239;50.057442;66.150467;;
79288;Laerm;68737;53.946;27.634;2023-09-19T12:05:27;63.360264;53.522842;71.307465;;
79288;Laerm;68737;53.946;27.634;2023-09-19T12:07:48;61.247982;49.975006;68.260117;;
79288;Laerm;68737;53.946;27.634;2023-09-19T12:10:18;56.713898;48.983360;64.352791;;
79288;Laerm;68737;53.946;27.634;2023-09-19T12:12:48;54.794472;49.303528;63.754307;;
79288;Laerm;68737;53.946;27.634;2023-09-19T12:17:48;55.359917;48.257248;67.663620;;
79288;Laerm;68737;53.946;27.634;2023-09-19T12:20:18;60.070549;51.015900;74.698151;;
79288;Laerm;68737;53.946;27.634;2023-09-19T12:22:51;57.337372;49.460556;75.495834;;
79288;Laerm;68737;53.946;27.634;2023-09-19T12:25:18;59.490028;50.061485;67.789246;;
79288;Laerm;68737;53.946;27.634;2023-09-19T12:27:48;61.885838;54.832489;67.352173;;
79288;Laerm;68737;53.946;27.634;2023-09-19T12:30:18;56.094002;50.497620;62.752373;;
79288;Laerm;68737;53.946;27.634;2023-09-19T12:32:48;54.778107;48.969925;62.737499;;
79288;Laerm;68737;53.946;27.634;2023-09-19T12:40:18;57.027824;51.565247;70.101204;;
79288;Laerm;68737;53.946;27.634;2023-09-19T12:42:48;56.874382;50.426224;64.625580;;
79288;Laerm;68737;53.946;27.634;2023-09-19T12:45:18;58.057236;51.182518;72.218445;;
79288;Laerm;68737;53.946;27.634;2023-09-19T12:50:18;57.190613;49.977829;68.548607;;
79288;Laerm;68737;53.946;27.634;2023-09-19T12:52:49;60.462463;51.538986;71.635056;;
79288;Laerm;68737;53.946;27.634;2023-09-19T13:00:18;55.195541;48.410637;61.749378;;
79288;Laerm;68737;53.946;27.634;2023-09-19T13:05:18;61.913208;54.517815;70.730019;;
79288;Laerm;68737;53.946;27.634;2023-09-19T13:07:48;57.422707;51.906784;63.434528;;
79288;Laerm;68737;53.946;27.634;2023-09-19T13:10:18;56.397102;49.091080;62.228844;;
79288;Laerm;68737;53.946;27.634;2023-09-19T13:12:48;56.328987;50.915375;61.715931;;
79288;Laerm;68737;53.946;27.634;2023-09-19T13:15:18;58.016113;49.748306;73.591095;;
79288;Laerm;68737;53.946;27.634;2023-09-19T13:17:48;61.975586;51.164650;83.750778;;
79288;Laerm;68737;53.946;27.634;2023-09-19T13:22:50;57.215050;49.914383;64.240959;;
79288;Laerm;68737;53.946;27.634;2023-09-19T13:25:18;58.198830;49.726433;66.236313;;
79288;Laerm;68737;53.946;27.634;2023-09-19T13:27:49;57.290283;49.875725;64.839233;;
79288;Laerm;68737;53.946;27.634;2023-09-19T13:30:18;59.341022;51.327332;82.258827;;
79288;Laerm;68737;53.946;27.634;2023-09-19T13:32:48;63.718796;51.498833;95.905251;;
79288;Laerm;68737;53.946;27.634;2023-09-19T13:35:18;57.590324;51.414963;65.499298;;
79288;Laerm;68737;53.946;27.634;2023-09-19T13:37:48;57.679688;49.700256;77.590050;;
79288;Laerm;68737;53.946;27.634;2023-09-19T13:40:18;57.077599;49.919647;76.339912;;
79288;Laerm;68737;53.946;27.634;2023-09-19T13:42:48;55.478798;48.972542;62.842937;;
79288;Laerm;68737;53.946;27.634;2023-09-19T13:45:18;58.717026;50.172104;79.410675;;
79288;Laerm;68737;53.946;27.634;2023-09-19T13:47:48;57.338905;49.655830;63.159981;;
79288;Laerm;68737;53.946;27.634;2023-09-19T13:50:18;56.234375;50.598602;61.052692;;
79288;Laerm;68737;53.946;27.634;2023-09-19T13:52:48;58.007706;50.348167;65.512787;;
79288;Laerm;68737;53.946;27.634;2023-09-19T13:55:18;57.098541;49.451271;66.347656;;
79288;Laerm;68737;53.946;27.634;2023-09-19T13:57:48;58.332642;50.625237;69.374268;;
79288;Laerm;68737;53.946;27.634;2023-09-19T14:00:18;57.018684;50.894173;68.411263;;
79288;Laerm;68737;53.946;27.634;2023-09-19T14:02:48;57.113197;50.317734;75.174774;;
79288;Laerm;68737;53.946;27.634;2023-09-19T14:05:18;58.605484;48.742867;85.692719;;